Time;durP1;ratioP1;P1;durP2;ratioP2;P2;SDS_P1;SDS_P2;PMS_P1;PMS_P2;Temp;Humidity;BMP_temperature;BMP_pressure;BME280_temperature;BME280_humidity;BME280_pressure;Samples;Min_cycle;Max_cycle;Signal;HPM_P1;HPM_P2
2023/07/16 00:00:04;;;;;;;0.57;0.57;;;;;;;18.92;56.17;100847.88;5034141;28;20109;-80
2023/07/16 00:02:30;;;;;;;0.10;0.10;;;;;;;18.80;55.80;100838.63;5035109;28;20056;-80
2023/07/16 00:04:56;;;;;;;0.00;0.00;;;;;;;18.91;55.81;100830.03;5035283;28;20105;-79
2023/07/16 00:07:23;;;;;;;0.75;0.75;;;;;;;18.92;55.98;100829.06;5035703;28;20080;-79
2023/07/16 00:09:51;;;;;;;0.10;0.10;;;;;;;18.94;56.11;100832.56;5033098;28;20029;-77
2023/07/16 00:12:18;;;;;;;0.30;0.30;;;;;;;18.92;56.07;100827.25;5035250;28;20029;-79
2023/07/16 00:14:44;;;;;;;0.10;0.10;;;;;;;18.92;56.23;100827.25;5035660;28;20025;-79
2023/07/16 00:17:10;;;;;;;1.77;0.85;;;;;;;18.91;56.27;100835.38;5034429;28;20068;-79
2023/07/16 00:19:36;;;;;;;0.10;0.10;;;;;;;18.79;56.60;100842.28;5034591;28;20037;-79
2023/07/16 00:22:02;;;;;;;0.10;0.10;;;;;;;18.84;56.71;100833.97;5037315;28;20072;-79
2023/07/16 00:24:28;;;;;;;0.20;0.20;;;;;;;18.86;56.35;100845.47;5035840;28;20049;-79
2023/07/16 00:26:54;;;;;;;0.10;0.10;;;;;;;18.89;56.02;100837.25;5033403;28;20497;-79
2023/07/16 00:29:21;;;;;;;0.32;0.32;;;;;;;18.87;56.51;100839.16;5036546;28;20017;-79
2023/07/16 00:31:47;;;;;;;0.10;0.10;;;;;;;18.88;56.55;100836.41;5038027;28;20060;-79
2023/07/16 00:34:13;;;;;;;0.10;0.10;;;;;;;18.79;56.34;100834.22;5036110;28;20109;-79
2023/07/16 00:36:39;;;;;;;0.20;0.20;;;;;;;18.83;56.31;100837.59;5037559;28;20075;-79
2023/07/16 00:39:05;;;;;;;0.10;0.10;;;;;;;18.87;56.35;100833.81;5035709;28;20030;-79
2023/07/16 00:41:31;;;;;;;2.05;0.40;;;;;;;18.85;56.54;100849.13;5038896;28;20101;-79
2023/07/16 00:43:57;;;;;;;0.10;0.10;;;;;;;18.84;56.54;100839.31;5039691;28;20091;-79
2023/07/16 00:46:25;;;;;;;0.10;0.10;;;;;;;18.85;56.55;100841.06;5038882;28;20090;-79
2023/07/16 00:48:52;;;;;;;0.10;0.10;;;;;;;18.86;56.50;100848.16;5038489;28;20039;-79
2023/07/16 00:51:19;;;;;;;0.45;0.45;;;;;;;18.84;56.67;100844.69;5040772;28;20079;-79
2023/07/16 00:53:46;;;;;;;0.17;0.17;;;;;;;18.81;56.71;100840.38;5039307;28;20026;-79
2023/07/16 00:56:16;;;;;;;0.10;0.10;;;;;;;18.78;56.76;100837.88;5034769;28;20057;-79
2023/07/16 00:58:42;;;;;;;0.10;0.10;;;;;;;18.70;57.01;100849.00;5035553;28;20022;-79
2023/07/16 01:01:08;;;;;;;0.10;0.10;;;;;;;18.72;57.11;100856.97;5035424;28;20029;-79
2023/07/16 01:03:34;;;;;;;0.00;0.00;;;;;;;18.70;57.34;100854.34;5035917;28;20022;-79
2023/07/16 01:08:49;;;;;;;0.17;0.17;;;;;;;18.75;57.01;100851.44;5106179;27;1243358;-79
2023/07/16 01:11:15;;;;;;;0.30;0.30;;;;;;;18.71;57.10;100849.88;5113441;28;20119;-80
2023/07/16 01:13:44;;;;;;;0.10;0.10;;;;;;;18.76;57.12;100853.16;5129829;28;20023;-80
2023/07/16 01:16:26;;;;;;;0.52;0.52;;;;;;;18.77;57.43;100854.91;5134510;27;20113;-80
2023/07/16 01:18:52;;;;;;;0.10;0.10;;;;;;;18.70;57.46;100846.31;5134861;28;20420;-79
2023/07/16 01:21:21;;;;;;;0.10;0.10;;;;;;;18.72;57.67;100857.84;5131828;28;20030;-79
2023/07/16 01:26:47;;;;;;;0.10;0.10;;;;;;;18.73;57.56;100843.47;5113633;27;20410;-79
2023/07/16 01:32:07;;;;;;;0.13;0.13;;;;;;;18.72;57.41;100848.94;5071768;27;20390;-80
2023/07/16 01:34:36;;;;;;;0.10;0.10;;;;;;;18.75;57.54;100851.44;5055695;28;20025;-80
2023/07/16 01:37:03;;;;;;;0.10;0.10;;;;;;;18.75;57.41;100849.63;5069030;28;20088;-80
2023/07/16 01:39:30;;;;;;;0.10;0.10;;;;;;;18.72;57.85;100844.41;5055723;27;20021;-80
2023/07/16 01:41:56;;;;;;;0.10;0.10;;;;;;;18.74;57.81;100853.25;5051272;28;20487;-80
2023/07/16 01:44:22;;;;;;;1.15;1.15;;;;;;;18.64;57.68;100849.34;5072947;28;20504;-80
2023/07/16 01:47:14;;;;;;;0.10;0.10;;;;;;;18.81;57.76;100856.47;5054996;28;20057;-80
2023/07/16 01:49:42;;;;;;;0.10;0.10;;;;;;;18.76;57.25;100854.03;5045614;28;20503;-80
2023/07/16 01:52:11;;;;;;;0.10;0.10;;;;;;;18.74;57.29;100861.31;5060947;28;20033;-79
2023/07/16 01:54:38;;;;;;;0.10;0.10;;;;;;;18.79;57.50;100857.50;5054557;28;20056;-79
2023/07/16 01:57:05;;;;;;;0.10;0.10;;;;;;;18.79;57.49;100862.88;5058891;28;20053;-79
2023/07/16 01:59:31;;;;;;;0.08;0.08;;;;;;;18.87;57.30;100855.28;5049988;28;20090;-79
2023/07/16 02:01:57;;;;;;;0.10;0.10;;;;;;;18.82;57.64;100852.84;5060296;28;20550;-80
2023/07/16 02:04:23;;;;;;;0.10;0.10;;;;;;;18.74;58.25;100860.44;5066922;28;20025;-79
2023/07/16 02:06:49;;;;;;;0.20;0.20;;;;;;;18.83;58.04;100861.75;5059697;27;20096;-79
2023/07/16 02:09:15;;;;;;;1.15;1.10;;;;;;;18.82;58.08;100860.03;5058673;28;20481;-80
2023/07/16 02:11:41;;;;;;;0.20;0.20;;;;;;;18.70;58.31;100867.78;5067619;28;20371;-78
2023/07/16 02:14:08;;;;;;;0.20;0.20;;;;;;;18.74;58.46;100861.31;5071038;27;20100;-79
2023/07/16 02:16:34;;;;;;;0.10;0.10;;;;;;;18.81;58.29;100864.53;5052233;28;20033;-80
2023/07/16 02:19:00;;;;;;;0.10;0.10;;;;;;;18.83;58.44;100859.94;5060279;27;20420;-80
2023/07/16 02:21:27;;;;;;;1.00;0.82;;;;;;;18.73;58.89;100870.31;5043883;27;20017;-80
2023/07/16 02:23:53;;;;;;;0.10;0.10;;;;;;;18.82;58.74;100865.41;5062206;27;20025;-79
2023/07/16 02:26:19;;;;;;;0.10;0.10;;;;;;;18.74;59.11;100869.38;5059376;28;20158;-80
2023/07/16 02:28:45;;;;;;;0.85;0.85;;;;;;;18.74;58.91;100858.63;5050794;27;20024;-80
2023/07/16 02:31:11;;;;;;;0.10;0.10;;;;;;;18.75;58.58;100862.16;5049522;28;20037;-80
2023/07/16 02:33:37;;;;;;;0.22;0.22;;;;;;;18.70;58.89;100865.09;5059809;28;20041;-79
2023/07/16 02:36:04;;;;;;;0.20;0.20;;;;;;;18.75;58.99;100863.06;5059904;27;20029;-78
2023/07/16 02:38:30;;;;;;;0.20;0.20;;;;;;;18.81;59.21;100866.34;5049405;28;20025;-79
2023/07/16 02:40:56;;;;;;;0.77;0.35;;;;;;;18.73;59.07;100867.63;5058595;27;20060;-80
2023/07/16 02:43:22;;;;;;;0.10;0.10;;;;;;;18.66;59.50;100855.47;5055720;27;20071;-79
2023/07/16 02:45:48;;;;;;;0.32;0.32;;;;;;;18.75;59.35;100865.72;5047147;28;20029;-79
2023/07/16 02:48:14;;;;;;;0.52;0.52;;;;;;;18.63;59.33;100874.44;5049570;28;20054;-79
2023/07/16 02:50:40;;;;;;;0.10;0.10;;;;;;;18.60;59.60;100863.84;5037845;28;20021;-79
2023/07/16 02:53:08;;;;;;;0.38;0.38;;;;;;;18.61;59.59;100870.97;5038094;28;20051;-78
2023/07/16 02:55:35;;;;;;;1.00;0.40;;;;;;;18.65;59.75;100872.53;5056021;28;20104;-78
2023/07/16 02:58:04;;;;;;;0.10;0.10;;;;;;;18.65;59.48;100877.88;5042428;28;20040;-80
2023/07/16 03:00:31;;;;;;;0.10;0.10;;;;;;;18.61;60.01;100880.84;5044990;28;20056;-81
2023/07/16 03:02:58;;;;;;;0.20;0.20;;;;;;;18.55;59.79;100865.94;5050823;28;20040;-80
2023/07/16 03:05:25;;;;;;;0.40;0.40;;;;;;;18.53;60.23;100868.69;5049488;28;20037;-79
2023/07/16 03:07:51;;;;;;;0.10;0.10;;;;;;;18.51;60.15;100869.72;5042316;28;20081;-78
2023/07/16 03:10:18;;;;;;;0.15;0.15;;;;;;;18.52;59.79;100877.69;5053434;28;20020;-80
2023/07/16 03:12:44;;;;;;;0.10;0.10;;;;;;;18.51;59.87;100867.03;5055888;28;20060;-80
2023/07/16 03:15:10;;;;;;;0.10;0.10;;;;;;;18.29;60.18;100876.19;5043765;28;20053;-80
2023/07/16 03:17:36;;;;;;;0.10;0.10;;;;;;;18.38;59.85;100870.38;5042594;28;20064;-80
2023/07/16 03:20:05;;;;;;;1.02;0.98;;;;;;;18.41;59.65;100870.19;5042150;28;20100;-80
2023/07/16 03:22:31;;;;;;;0.10;0.10;;;;;;;18.44;59.54;100877.22;5040800;28;20085;-79
2023/07/16 03:24:58;;;;;;;0.10;0.10;;;;;;;18.37;59.87;100892.78;5048880;28;20049;-80
2023/07/16 03:27:24;;;;;;;0.00;0.00;;;;;;;18.41;59.46;100882.75;5055493;28;20029;-80
2023/07/16 03:29:50;;;;;;;0.10;0.10;;;;;;;18.36;59.51;100879.44;5042039;28;20025;-80
2023/07/16 03:32:16;;;;;;;0.10;0.10;;;;;;;18.39;59.47;100890.88;5042246;28;20078;-79
2023/07/16 03:34:42;;;;;;;0.20;0.20;;;;;;;18.41;59.87;100902.38;5039384;28;20026;-79
2023/07/16 03:37:08;;;;;;;0.80;0.80;;;;;;;18.37;59.80;100899.97;5037592;28;20054;-78
2023/07/16 03:39:34;;;;;;;0.70;0.70;;;;;;;18.45;59.45;100908.47;5043371;28;20088;-77
2023/07/16 03:42:01;;;;;;;4.13;0.47;;;;;;;18.52;59.17;100903.66;5041600;28;20029;-78
2023/07/16 03:44:28;;;;;;;0.10;0.10;;;;;;;18.49;59.21;100904.69;5041055;28;20052;-78
2023/07/16 03:46:54;;;;;;;0.10;0.10;;;;;;;18.58;58.96;100914.06;5041605;28;20082;-78
2023/07/16 03:49:20;;;;;;;1.08;1.08;;;;;;;18.53;59.01;100924.16;5040623;28;20053;-79
2023/07/16 03:51:46;;;;;;;0.35;0.35;;;;;;;18.55;58.47;100914.22;5040289;28;20024;-79
2023/07/16 03:54:12;;;;;;;0.30;0.30;;;;;;;18.51;58.59;100920.72;5060049;28;20041;-79
2023/07/16 03:56:38;;;;;;;0.10;0.10;;;;;;;18.52;58.46;100930.50;5045523;28;20026;-79
2023/07/16 03:59:04;;;;;;;2.53;1.48;;;;;;;18.61;58.37;100918.41;5038182;28;20029;-79
2023/07/16 04:01:31;;;;;;;0.55;0.55;;;;;;;18.65;58.16;100930.72;5035126;28;20029;-78
2023/07/16 04:03:57;;;;;;;0.10;0.10;;;;;;;18.54;58.01;100933.94;5040038;28;20041;-78
2023/07/16 04:06:23;;;;;;;0.10;0.10;;;;;;;18.63;57.72;100946.91;5043502;28;20066;-79
2023/07/16 04:08:51;;;;;;;1.17;1.17;;;;;;;18.64;57.56;100934.34;5055809;28;20039;-79
2023/07/16 04:11:18;;;;;;;0.28;0.28;;;;;;;18.75;57.49;100932.84;5030126;28;20388;-79
2023/07/16 04:13:44;;;;;;;0.10;0.10;;;;;;;18.73;57.18;100924.00;5046363;28;20068;-79
2023/07/16 04:16:10;;;;;;;0.40;0.40;;;;;;;18.80;57.26;100937.09;5036016;28;20026;-77
2023/07/16 04:18:36;;;;;;;0.00;0.00;;;;;;;18.72;57.24;100943.72;5041207;28;20025;-77
2023/07/16 04:21:02;;;;;;;0.20;0.20;;;;;;;18.74;57.53;100949.88;5039130;28;20116;-77
2023/07/16 04:23:28;;;;;;;0.17;0.17;;;;;;;18.64;57.62;100943.28;5040052;28;20113;-78
2023/07/16 04:25:56;;;;;;;0.10;0.10;;;;;;;18.59;57.67;100954.25;5049080;28;20037;-77
2023/07/16 04:28:22;;;;;;;0.30;0.30;;;;;;;18.63;57.56;100952.25;5029455;28;20025;-78
2023/07/16 04:30:48;;;;;;;0.20;0.20;;;;;;;18.70;57.21;100950.97;5030364;28;20040;-78
2023/07/16 04:33:14;;;;;;;0.10;0.10;;;;;;;18.71;57.37;100952.72;5028925;28;20545;-77
2023/07/16 04:35:40;;;;;;;0.20;0.20;;;;;;;18.69;57.33;100954.63;5038691;28;20040;-78
2023/07/16 04:38:07;;;;;;;0.10;0.10;;;;;;;18.72;57.29;100943.72;5039424;28;20060;-78
2023/07/16 04:40:34;;;;;;;0.65;0.65;;;;;;;18.74;57.44;100957.06;5033038;28;20646;-78
2023/07/16 04:43:00;;;;;;;0.25;0.25;;;;;;;18.60;57.57;100949.72;5041812;28;20032;-78
2023/07/16 04:45:26;;;;;;;0.73;0.73;;;;;;;18.58;57.55;100954.31;5042889;28;20048;-77
2023/07/16 04:47:52;;;;;;;0.10;0.10;;;;;;;18.69;57.52;100964.47;5042774;28;20029;-78
2023/07/16 04:50:18;;;;;;;0.85;0.40;;;;;;;18.87;57.04;100942.03;5036643;28;20482;-77
2023/07/16 04:52:44;;;;;;;1.75;1.65;;;;;;;18.87;57.00;100954.59;5035698;28;20025;-77
2023/07/16 04:55:12;;;;;;;0.10;0.10;;;;;;;18.99;56.49;100967.41;5038753;28;20029;-77
2023/07/16 04:57:39;;;;;;;0.28;0.28;;;;;;;19.00;56.45;100958.38;5028449;28;20025;-77
2023/07/16 05:00:06;;;;;;;0.30;0.30;;;;;;;18.91;55.62;100966.94;5027947;28;20040;-77
2023/07/16 05:02:32;;;;;;;0.10;0.10;;;;;;;18.93;55.00;100973.09;5031691;28;20029;-77
2023/07/16 05:04:59;;;;;;;0.57;0.57;;;;;;;18.85;55.00;100977.97;5036093;28;20033;-77
2023/07/16 05:07:25;;;;;;;0.10;0.10;;;;;;;18.95;55.08;100973.88;5042415;28;20029;-77
2023/07/16 05:09:51;;;;;;;0.17;0.17;;;;;;;18.91;55.16;100975.00;5039371;28;20029;-77
2023/07/16 05:12:17;;;;;;;0.10;0.10;;;;;;;18.89;54.86;100992.94;5027824;28;20541;-77
2023/07/16 05:14:46;;;;;;;0.20;0.20;;;;;;;18.87;54.68;100985.00;5026600;28;20367;-77
2023/07/16 05:17:13;;;;;;;0.10;0.10;;;;;;;18.83;55.18;100987.91;5048231;28;20029;-77
2023/07/16 05:19:39;;;;;;;0.90;0.90;;;;;;;18.87;55.36;100987.66;5033866;28;20037;-78
2023/07/16 05:22:05;;;;;;;0.25;0.25;;;;;;;18.85;54.95;100986.03;5028458;28;20458;-76
2023/07/16 05:24:32;;;;;;;0.65;0.65;;;;;;;18.85;55.21;100988.72;5048494;28;20027;-77
2023/07/16 05:26:58;;;;;;;0.65;0.65;;;;;;;18.78;55.08;100987.28;5041968;28;20444;-78
2023/07/16 05:29:24;;;;;;;0.70;0.70;;;;;;;18.87;55.06;100995.72;5029017;28;20060;-77
2023/07/16 05:31:51;;;;;;;0.00;0.00;;;;;;;18.93;55.39;100989.22;5035351;28;20113;-77
2023/07/16 05:34:17;;;;;;;0.20;0.20;;;;;;;18.92;55.62;100990.16;5036451;27;20031;-77
2023/07/16 05:36:44;;;;;;;0.10;0.10;;;;;;;18.93;55.64;100997.28;5034873;28;20115;-77
2023/07/16 05:39:12;;;;;;;0.57;0.57;;;;;;;18.95;55.84;100992.66;5036534;28;20033;-77
2023/07/16 05:41:40;;;;;;;0.03;0.03;;;;;;;19.03;55.51;100998.50;5042142;28;20146;-78
2023/07/16 05:44:07;;;;;;;0.03;0.03;;;;;;;19.05;55.92;101014.53;5029647;28;20030;-77
2023/07/16 05:46:34;;;;;;;0.85;0.85;;;;;;;19.04;55.50;101008.31;5028081;28;20540;-77
2023/07/16 05:49:00;;;;;;;0.40;0.40;;;;;;;19.10;55.18;101007.09;5038902;28;20054;-78
2023/07/16 05:51:26;;;;;;;0.47;0.47;;;;;;;19.20;55.11;101020.91;5048929;28;20420;-78
2023/07/16 05:53:53;;;;;;;2.03;0.73;;;;;;;19.28;55.01;101016.00;5050850;28;20029;-78
2023/07/16 05:56:19;;;;;;;35.08;1.50;;;;;;;19.36;54.90;101013.75;5029619;28;20796;-78
2023/07/16 05:58:45;;;;;;;0.10;0.10;;;;;;;19.43;54.11;101018.78;5029513;28;20038;-78
2023/07/16 06:01:11;;;;;;;0.10;0.10;;;;;;;19.55;54.57;101012.75;5048349;28;20060;-78
2023/07/16 06:03:37;;;;;;;0.15;0.15;;;;;;;19.55;54.00;101018.13;5036552;28;20038;-78
2023/07/16 06:06:03;;;;;;;0.90;0.90;;;;;;;19.51;53.51;101025.47;5030994;28;20057;-78
2023/07/16 06:08:29;;;;;;;0.10;0.10;;;;;;;19.66;53.68;101021.06;5043963;28;20033;-78
2023/07/16 06:10:56;;;;;;;0.43;0.43;;;;;;;19.71;54.09;101026.22;5046864;28;20056;-79
2023/07/16 06:13:22;;;;;;;0.45;0.45;;;;;;;19.77;53.71;101022.31;5039363;28;20116;-79
2023/07/16 06:15:48;;;;;;;0.10;0.10;;;;;;;19.66;53.61;101026.44;5048101;28;20494;-79
2023/07/16 06:18:14;;;;;;;0.10;0.10;;;;;;;19.63;53.66;101028.47;5043516;28;21613;-79
2023/07/16 06:20:44;;;;;;;0.05;0.05;;;;;;;19.67;54.35;101032.72;5034913;28;20018;-78
2023/07/16 06:23:11;;;;;;;0.28;0.28;;;;;;;19.65;53.90;101027.44;5043765;28;20798;-78
2023/07/16 06:25:37;;;;;;;1.33;0.25;;;;;;;19.67;54.00;101027.34;5047212;28;20502;-78
2023/07/16 06:28:04;;;;;;;0.52;0.52;;;;;;;19.55;53.73;101045.88;5033878;28;20065;-78
2023/07/16 06:30:32;;;;;;;0.55;0.55;;;;;;;19.58;54.25;101038.56;5048593;28;20033;-80
2023/07/16 06:32:58;;;;;;;0.63;0.63;;;;;;;19.68;54.38;101046.06;5041224;28;20050;-79
2023/07/16 06:35:24;;;;;;;0.10;0.10;;;;;;;19.78;53.80;101056.31;5040783;28;20030;-79
2023/07/16 06:37:50;;;;;;;0.20;0.20;;;;;;;19.77;53.36;101065.34;5042317;28;20058;-78
2023/07/16 06:40:17;;;;;;;0.32;0.32;;;;;;;19.88;53.12;101058.44;5039990;28;20372;-79
2023/07/16 06:42:43;;;;;;;0.10;0.10;;;;;;;20.08;53.12;101077.09;5038113;28;20058;-79
2023/07/16 06:45:10;;;;;;;0.65;0.55;;;;;;;20.06;52.89;101070.94;5047502;28;20029;-80
2023/07/16 06:47:36;;;;;;;0.38;0.38;;;;;;;19.87;53.17;101069.28;5053373;28;20036;-79
2023/07/16 06:50:02;;;;;;;0.25;0.25;;;;;;;19.97;53.58;101062.41;5036668;28;20049;-79
2023/07/16 06:52:30;;;;;;;0.10;0.10;;;;;;;19.94;54.08;101062.59;5040698;28;20516;-80
2023/07/16 06:54:56;;;;;;;0.52;0.52;;;;;;;19.89;54.49;101070.06;5057137;28;20127;-79
2023/07/16 06:57:23;;;;;;;0.30;0.30;;;;;;;19.86;54.41;101095.31;5035585;28;20498;-79
2023/07/16 06:59:49;;;;;;;0.82;0.82;;;;;;;19.96;54.28;101082.22;5034204;28;20040;-79
2023/07/16 07:02:17;;;;;;;0.10;0.10;;;;;;;20.16;53.93;101072.16;5051204;28;20037;-79
2023/07/16 07:04:44;;;;;;;0.28;0.28;;;;;;;20.28;53.58;101070.59;5036574;28;20021;-79
2023/07/16 07:07:10;;;;;;;0.15;0.15;;;;;;;20.48;53.83;101072.13;5049559;28;20082;-79
2023/07/16 07:09:36;;;;;;;0.05;0.05;;;;;;;20.59;52.78;101091.22;5050102;28;20494;-79
2023/07/16 07:12:02;;;;;;;0.00;0.00;;;;;;;20.49;52.59;101084.63;5041262;28;20022;-80
2023/07/16 07:14:29;;;;;;;0.98;0.98;;;;;;;20.67;53.03;101105.09;5049432;28;20033;-80
2023/07/16 07:16:55;;;;;;;0.10;0.10;;;;;;;20.56;52.37;101101.28;5056402;28;20043;-80
2023/07/16 07:19:21;;;;;;;0.13;0.13;;;;;;;20.58;52.51;101094.84;5044392;28;20060;-78
2023/07/16 07:21:47;;;;;;;0.10;0.10;;;;;;;20.60;52.44;101119.88;5042698;28;20101;-78
2023/07/16 07:24:13;;;;;;;0.38;0.38;;;;;;;20.51;52.26;101098.84;5046620;28;20037;-78
2023/07/16 07:26:39;;;;;;;0.10;0.10;;;;;;;20.60;52.53;101105.53;5049712;28;20013;-79
2023/07/16 07:29:05;;;;;;;0.70;0.70;;;;;;;20.67;53.23;101115.88;5035174;28;20030;-79
2023/07/16 07:31:31;;;;;;;0.10;0.10;;;;;;;20.71;52.49;101103.13;5043198;28;20490;-77
2023/07/16 07:33:58;;;;;;;2.53;0.82;;;;;;;20.82;52.36;101113.25;5051428;28;20038;-79
2023/07/16 07:36:24;;;;;;;0.20;0.20;;;;;;;20.86;52.22;101114.81;5056801;28;20021;-80
2023/07/16 07:38:50;;;;;;;0.10;0.10;;;;;;;20.98;52.45;101119.44;5046876;28;20036;-79
2023/07/16 07:41:16;;;;;;;0.10;0.10;;;;;;;20.98;51.28;101127.53;5058598;28;20040;-79
2023/07/16 07:43:43;;;;;;;1.27;0.77;;;;;;;21.07;51.30;101123.47;5052973;28;20654;-79
2023/07/16 07:46:10;;;;;;;0.10;0.10;;;;;;;21.00;51.59;101139.09;5050097;28;20410;-79
2023/07/16 07:48:36;;;;;;;0.15;0.15;;;;;;;21.08;51.87;101132.41;5048138;28;20452;-79
2023/07/16 07:51:02;;;;;;;0.08;0.08;;;;;;;21.16;51.62;101127.41;5032403;28;20034;-79
2023/07/16 07:53:28;;;;;;;2.30;0.63;;;;;;;21.02;51.98;101139.00;5039047;28;20093;-80
2023/07/16 07:55:55;;;;;;;2.25;1.15;;;;;;;20.97;51.57;101116.84;5054575;28;20383;-79
2023/07/16 07:58:21;;;;;;;1.05;0.80;;;;;;;21.11;51.66;101132.19;5052640;28;20025;-78
2023/07/16 08:00:47;;;;;;;0.22;0.22;;;;;;;21.14;51.58;101137.41;5038263;28;20021;-78
2023/07/16 08:03:13;;;;;;;0.10;0.10;;;;;;;21.24;51.51;101140.44;5042641;28;20064;-78
2023/07/16 08:05:39;;;;;;;0.98;0.77;;;;;;;20.91;51.77;101155.81;5050176;28;20021;-78
2023/07/16 08:08:05;;;;;;;0.20;0.20;;;;;;;20.81;51.46;101154.59;5036468;28;20036;-79
2023/07/16 08:10:31;;;;;;;0.50;0.50;;;;;;;20.78;52.19;101149.41;5053989;28;20027;-79
2023/07/16 08:12:57;;;;;;;1.77;1.30;;;;;;;20.72;52.26;101152.44;5038323;28;20578;-79
2023/07/16 08:15:23;;;;;;;0.20;0.20;;;;;;;20.69;52.93;101162.41;5043685;28;20034;-79
2023/07/16 08:17:52;;;;;;;0.20;0.20;;;;;;;20.90;52.87;101169.34;5035092;28;20049;-79
2023/07/16 08:20:18;;;;;;;0.20;0.20;;;;;;;20.86;53.19;101171.38;5034534;27;20029;-79
2023/07/16 08:22:44;;;;;;;0.15;0.15;;;;;;;20.80;53.51;101163.66;5035018;28;20131;-79
2023/07/16 08:25:10;;;;;;;1.33;1.25;;;;;;;20.95;53.36;101173.53;5053039;28;20085;-79
2023/07/16 08:27:37;;;;;;;0.10;0.10;;;;;;;21.17;53.04;101170.44;5040794;28;20032;-78
2023/07/16 08:30:04;;;;;;;0.35;0.35;;;;;;;21.07;52.64;101165.66;5033920;28;20041;-78
2023/07/16 08:32:30;;;;;;;1.77;1.38;;;;;;;21.07;52.60;101153.09;5043292;28;20033;-79
2023/07/16 08:34:56;;;;;;;0.47;0.47;;;;;;;21.21;52.44;101163.03;5042410;28;20033;-79
2023/07/16 08:37:22;;;;;;;0.25;0.25;;;;;;;21.39;51.80;101170.97;5034501;28;20034;-79
2023/07/16 08:39:53;;;;;;;0.10;0.10;;;;;;;21.29;51.57;101182.28;5048227;28;20076;-79
2023/07/16 08:42:20;;;;;;;0.10;0.10;;;;;;;21.36;51.64;101171.13;5041930;28;20029;-79
2023/07/16 08:44:48;;;;;;;6.13;0.80;;;;;;;21.52;51.82;101171.97;5034187;28;20052;-78
2023/07/16 08:47:15;;;;;;;0.43;0.40;;;;;;;21.62;52.13;101169.59;5034736;28;20090;-79
2023/07/16 08:49:41;;;;;;;0.20;0.20;;;;;;;21.60;51.33;101183.16;5050530;28;20063;-79
2023/07/16 08:52:09;;;;;;;0.35;0.35;;;;;;;21.54;50.66;101172.72;5044741;28;20116;-79
2023/07/16 08:54:35;;;;;;;0.35;0.35;;;;;;;21.69;51.24;101183.56;5039879;28;20120;-80
2023/07/16 08:57:02;;;;;;;0.10;0.10;;;;;;;21.65;50.66;101175.66;5040007;27;20173;-79
2023/07/16 08:59:28;;;;;;;0.10;0.10;;;;;;;21.70;50.25;101206.88;5036268;28;20037;-78
2023/07/16 09:01:55;;;;;;;0.20;0.20;;;;;;;21.75;50.36;101181.34;5045151;28;20036;-78
2023/07/16 09:04:21;;;;;;;0.00;0.00;;;;;;;21.84;50.25;101193.41;5037794;28;20024;-78
2023/07/16 09:06:47;;;;;;;0.20;0.20;;;;;;;21.94;50.28;101182.91;5037835;28;20029;-79
2023/07/16 09:09:21;;;;;;;0.38;0.30;;;;;;;22.19;50.70;101187.63;5038632;28;20502;-79
2023/07/16 09:11:48;;;;;;;0.38;0.38;;;;;;;22.32;49.55;101186.84;5057316;28;20080;-78
2023/07/16 09:14:18;;;;;;;0.52;0.52;;;;;;;22.34;48.71;101190.31;5037189;28;20040;-79
2023/07/16 09:16:49;;;;;;;0.20;0.20;;;;;;;22.24;49.05;101190.91;5035357;28;20082;-78
2023/07/16 09:19:18;;;;;;;2.80;1.60;;;;;;;22.14;50.08;101195.13;5035717;28;20029;-79
2023/07/16 09:21:46;;;;;;;0.40;0.40;;;;;;;22.12;49.51;101195.25;5034145;28;20063;-79
2023/07/16 09:24:13;;;;;;;0.05;0.05;;;;;;;22.03;49.29;101205.75;5042775;28;20057;-79
2023/07/16 09:26:46;;;;;;;0.10;0.10;;;;;;;22.01;49.48;101202.25;5048824;28;20054;-80
2023/07/16 09:29:13;;;;;;;0.30;0.30;;;;;;;21.98;49.95;101201.50;5034576;28;20025;-80
2023/07/16 09:31:50;;;;;;;0.55;0.55;;;;;;;21.90;49.90;101206.50;5032881;28;20112;-79
2023/07/16 09:34:16;;;;;;;0.10;0.10;;;;;;;21.85;50.31;101199.69;5042696;28;20093;-79
2023/07/16 09:36:42;;;;;;;1.45;1.10;;;;;;;21.92;50.76;101209.09;5034343;28;20090;-79
2023/07/16 09:39:08;;;;;;;0.20;0.20;;;;;;;22.02;50.52;101212.09;5038740;28;20041;-79
2023/07/16 09:41:38;;;;;;;0.10;0.10;;;;;;;22.18;49.62;101212.91;5045919;28;20029;-79
2023/07/16 09:44:04;;;;;;;0.55;0.55;;;;;;;22.29;47.48;101229.28;5035182;28;20058;-80
2023/07/16 09:46:30;;;;;;;0.10;0.10;;;;;;;22.40;47.41;101209.69;5056487;28;20025;-79
2023/07/16 09:48:56;;;;;;;0.00;0.00;;;;;;;22.29;47.77;101220.28;5039107;28;20112;-80
2023/07/16 09:51:24;;;;;;;0.10;0.10;;;;;;;22.14;47.61;101217.63;5033183;28;20037;-79
2023/07/16 09:53:52;;;;;;;0.10;0.10;;;;;;;22.26;47.79;101223.19;5042340;28;20088;-80
2023/07/16 09:56:20;;;;;;;0.32;0.32;;;;;;;22.39;48.27;101228.69;5056334;28;20048;-79
2023/07/16 09:58:46;;;;;;;2.72;2.53;;;;;;;22.29;48.90;101225.69;5049758;27;20049;-79
2023/07/16 10:01:14;;;;;;;0.00;0.00;;;;;;;22.21;49.59;101239.66;5040072;28;20081;-78
2023/07/16 10:03:52;;;;;;;0.32;0.32;;;;;;;22.38;48.86;101245.84;5058074;28;20040;-80
2023/07/16 10:06:18;;;;;;;0.47;0.47;;;;;;;22.42;49.27;101236.63;5055081;27;20519;-79
2023/07/16 10:08:50;;;;;;;0.32;0.32;;;;;;;22.45;49.55;101242.69;5050522;28;20060;-79
2023/07/16 10:11:17;;;;;;;;;;;;;;;22.68;49.13;101248.44;5046209;28;20018;-79
2023/07/16 10:13:48;;;;;;;0.10;0.10;;;;;;;22.81;48.88;101232.28;5052437;28;20271;-83
2023/07/16 10:16:22;;;;;;;3.63;1.65;;;;;;;22.80;48.07;101241.34;5047120;28;20045;-78
2023/07/16 10:18:55;;;;;;;0.75;0.50;;;;;;;22.80;47.94;101252.16;5049088;28;20037;-79
2023/07/16 10:21:25;;;;;;;0.30;0.30;;;;;;;22.86;48.60;101232.00;5049285;28;20041;-79
2023/07/16 10:23:59;;;;;;;0.43;0.43;;;;;;;22.86;49.26;101251.75;5061055;28;20508;-80
2023/07/16 10:26:28;;;;;;;0.10;0.10;;;;;;;22.90;48.40;101253.31;5033271;28;20034;-79
2023/07/16 10:28:55;;;;;;;0.57;0.57;;;;;;;22.81;48.27;101251.19;5039743;28;20049;-79
2023/07/16 10:31:24;;;;;;;0.10;0.10;;;;;;;22.94;48.47;101262.94;5060232;28;20021;-79
2023/07/16 10:34:05;;;;;;;0.10;0.10;;;;;;;23.16;47.60;101252.59;5044254;28;20021;-79
2023/07/16 10:36:38;;;;;;;0.10;0.10;;;;;;;23.41;48.08;101265.31;5042218;28;20033;-79
2023/07/16 10:39:04;;;;;;;0.10;0.10;;;;;;;23.58;46.53;101246.09;5058679;28;20050;-78
2023/07/16 10:41:32;;;;;;;0.85;0.43;;;;;;;23.86;46.24;101246.91;5048032;28;20030;-79
2023/07/16 10:43:59;;;;;;;0.10;0.10;;;;;;;24.04;45.71;101249.31;5038024;28;20034;-79
2023/07/16 10:46:25;;;;;;;0.22;0.22;;;;;;;24.16;45.47;101270.09;5044120;28;20248;-79
2023/07/16 10:48:51;;;;;;;0.47;0.47;;;;;;;23.99;45.22;101273.09;5052126;27;20101;-80
2023/07/16 10:51:17;;;;;;;0.17;0.17;;;;;;;23.73;45.23;101273.06;5039763;28;20046;-79
2023/07/16 10:53:44;;;;;;;0.00;0.00;;;;;;;23.40;45.08;101274.38;5046233;28;20048;-79
2023/07/16 10:56:10;;;;;;;0.25;0.25;;;;;;;23.46;45.42;101273.97;5057570;28;20025;-79
2023/07/16 10:58:37;;;;;;;0.10;0.10;;;;;;;23.62;46.07;101281.06;5047308;28;20033;-79
2023/07/16 11:01:04;;;;;;;8.43;0.43;;;;;;;23.78;45.71;101280.88;5043744;28;20025;-78
2023/07/16 11:03:30;;;;;;;0.10;0.10;;;;;;;23.98;45.63;101283.06;5045012;28;20391;-79
2023/07/16 11:05:56;;;;;;;2.13;0.80;;;;;;;24.15;45.37;101272.91;5036336;28;20137;-78
2023/07/16 11:08:23;;;;;;;0.10;0.10;;;;;;;24.37;44.49;101283.94;5047470;28;20560;-79
2023/07/16 11:10:57;;;;;;;0.10;0.10;;;;;;;24.52;43.44;101284.69;5054604;28;20024;-78
2023/07/16 11:13:28;;;;;;;0.13;0.13;;;;;;;24.48;43.00;101290.44;5046520;28;20037;-79
2023/07/16 11:15:54;;;;;;;2.42;0.75;;;;;;;24.34;43.22;101295.00;5033400;28;20033;-80
2023/07/16 11:18:24;;;;;;;0.10;0.10;;;;;;;24.07;43.28;101292.38;5047455;28;20521;-79
2023/07/16 11:20:53;;;;;;;0.52;0.52;;;;;;;24.18;44.54;101284.38;5036715;28;20033;-80
2023/07/16 11:23:19;;;;;;;0.22;0.22;;;;;;;24.17;45.13;101296.16;5046574;28;20144;-80
2023/07/16 11:25:48;;;;;;;0.10;0.10;;;;;;;24.14;44.15;101295.53;5050662;28;20402;-80
2023/07/16 11:28:14;;;;;;;0.10;0.10;;;;;;;24.26;45.12;101291.09;5038593;27;20053;-79
2023/07/16 11:30:40;;;;;;;0.10;0.10;;;;;;;24.32;45.15;101296.06;5038186;28;20033;-80